sensor_id;sensor_type;location;lat;lon;timestamp;P1;durP1;ratioP1;P2;durP2;ratioP2
20441;SDS011;10380;52.102;20.614;2023-07-02T00:00:05;25.13;;;16.55;;
20441;SDS011;10380;52.102;20.614;2023-07-02T00:02:33;25.83;;;16.55;;
20441;SDS011;10380;52.102;20.614;2023-07-02T00:05:00;24.48;;;16.33;;
20441;SDS011;10380;52.102;20.614;2023-07-02T00:07:28;27.48;;;17.75;;
20441;SDS011;10380;52.102;20.614;2023-07-02T00:09:54;27.65;;;18.92;;
20441;SDS011;10380;52.102;20.614;2023-07-02T00:12:22;25.20;;;18.10;;
20441;SDS011;10380;52.102;20.614;2023-07-02T00:14:50;25.38;;;16.92;;
20441;SDS011;10380;52.102;20.614;2023-07-02T00:17:19;25.75;;;17.55;;
20441;SDS011;10380;52.102;20.614;2023-07-02T00:19:47;24.45;;;17.58;;
20441;SDS011;10380;52.102;20.614;2023-07-02T00:22:18;25.77;;;17.15;;
20441;SDS011;10380;52.102;20.614;2023-07-02T00:24:46;27.77;;;18.98;;
20441;SDS011;10380;52.102;20.614;2023-07-02T00:27:13;25.10;;;17.70;;
20441;SDS011;10380;52.102;20.614;2023-07-02T00:29:40;26.65;;;18.25;;
20441;SDS011;10380;52.102;20.614;2023-07-02T00:32:07;24.98;;;16.75;;
20441;SDS011;10380;52.102;20.614;2023-07-02T00:34:34;26.85;;;17.55;;
20441;SDS011;10380;52.102;20.614;2023-07-02T00:37:01;24.10;;;18.20;;
20441;SDS011;10380;52.102;20.614;2023-07-02T00:39:28;24.90;;;17.73;;
20441;SDS011;10380;52.102;20.614;2023-07-02T00:41:59;27.85;;;17.15;;
20441;SDS011;10380;52.102;20.614;2023-07-02T00:44:27;23.55;;;16.15;;
20441;SDS011;10380;52.102;20.614;2023-07-02T00:46:55;25.58;;;16.65;;
20441;SDS011;10380;52.102;20.614;2023-07-02T00:49:22;24.35;;;17.27;;
20441;SDS011;10380;52.102;20.614;2023-07-02T00:51:49;21.95;;;16.35;;
20441;SDS011;10380;52.102;20.614;2023-07-02T00:54:18;27.02;;;17.58;;
20441;SDS011;10380;52.102;20.614;2023-07-02T00:56:45;27.00;;;18.75;;
20441;SDS011;10380;52.102;20.614;2023-07-02T00:59:12;27.30;;;18.50;;
20441;SDS011;10380;52.102;20.614;2023-07-02T01:01:39;24.35;;;17.25;;
20441;SDS011;10380;52.102;20.614;2023-07-02T01:04:06;24.25;;;17.75;;
20441;SDS011;10380;52.102;20.614;2023-07-02T01:06:39;27.23;;;19.50;;
20441;SDS011;10380;52.102;20.614;2023-07-02T01:09:08;28.73;;;18.80;;
20441;SDS011;10380;52.102;20.614;2023-07-02T01:14:15;25.48;;;17.88;;
20441;SDS011;10380;52.102;20.614;2023-07-02T01:16:45;29.75;;;18.75;;
20441;SDS011;10380;52.102;20.614;2023-07-02T01:19:16;24.90;;;18.70;;
20441;SDS011;10380;52.102;20.614;2023-07-02T01:21:47;26.15;;;18.70;;
20441;SDS011;10380;52.102;20.614;2023-07-02T01:24:15;26.00;;;18.58;;
20441;SDS011;10380;52.102;20.614;2023-07-02T01:26:42;24.02;;;18.65;;
20441;SDS011;10380;52.102;20.614;2023-07-02T01:29:18;30.02;;;19.67;;
20441;SDS011;10380;52.102;20.614;2023-07-02T01:31:47;28.48;;;19.08;;
20441;SDS011;10380;52.102;20.614;2023-07-02T01:34:14;26.08;;;19.25;;
20441;SDS011;10380;52.102;20.614;2023-07-02T01:36:41;25.27;;;19.13;;
20441;SDS011;10380;52.102;20.614;2023-07-02T01:39:08;26.45;;;18.50;;
20441;SDS011;10380;52.102;20.614;2023-07-02T01:41:44;27.35;;;17.42;;
20441;SDS011;10380;52.102;20.614;2023-07-02T01:44:21;28.38;;;18.40;;
20441;SDS011;10380;52.102;20.614;2023-07-02T01:46:48;23.70;;;15.63;;
20441;SDS011;10380;52.102;20.614;2023-07-02T01:49:16;26.38;;;17.25;;
20441;SDS011;10380;52.102;20.614;2023-07-02T01:51:53;25.67;;;17.83;;
20441;SDS011;10380;52.102;20.614;2023-07-02T01:54:22;27.42;;;17.73;;
20441;SDS011;10380;52.102;20.614;2023-07-02T01:56:50;24.45;;;16.95;;
20441;SDS011;10380;52.102;20.614;2023-07-02T01:59:17;22.73;;;17.30;;
20441;SDS011;10380;52.102;20.614;2023-07-02T02:01:44;23.70;;;17.02;;
20441;SDS011;10380;52.102;20.614;2023-07-02T02:04:11;24.92;;;17.10;;
20441;SDS011;10380;52.102;20.614;2023-07-02T02:06:39;23.63;;;17.17;;
20441;SDS011;10380;52.102;20.614;2023-07-02T02:09:06;24.10;;;17.23;;
20441;SDS011;10380;52.102;20.614;2023-07-02T02:11:38;20.90;;;14.95;;
20441;SDS011;10380;52.102;20.614;2023-07-02T02:14:07;20.90;;;14.68;;
20441;SDS011;10380;52.102;20.614;2023-07-02T02:16:34;22.33;;;16.25;;
20441;SDS011;10380;52.102;20.614;2023-07-02T02:19:01;28.50;;;16.77;;
20441;SDS011;10380;52.102;20.614;2023-07-02T02:21:29;20.08;;;15.73;;
20441;SDS011;10380;52.102;20.614;2023-07-02T02:23:56;22.92;;;15.32;;
20441;SDS011;10380;52.102;20.614;2023-07-02T02:26:23;19.70;;;16.35;;
20441;SDS011;10380;52.102;20.614;2023-07-02T02:28:51;19.90;;;13.93;;
20441;SDS011;10380;52.102;20.614;2023-07-02T02:31:19;24.27;;;15.85;;
20441;SDS011;10380;52.102;20.614;2023-07-02T02:33:46;21.30;;;14.15;;
20441;SDS011;10380;52.102;20.614;2023-07-02T02:36:13;19.52;;;14.73;;
20441;SDS011;10380;52.102;20.614;2023-07-02T02:38:40;18.48;;;14.25;;
20441;SDS011;10380;52.102;20.614;2023-07-02T02:41:07;20.88;;;14.80;;
20441;SDS011;10380;52.102;20.614;2023-07-02T02:43:34;21.48;;;14.63;;
20441;SDS011;10380;52.102;20.614;2023-07-02T02:46:02;24.50;;;14.65;;
20441;SDS011;10380;52.102;20.614;2023-07-02T02:48:29;20.45;;;14.00;;
20441;SDS011;10380;52.102;20.614;2023-07-02T02:50:56;18.20;;;13.70;;
20441;SDS011;10380;52.102;20.614;2023-07-02T02:53:22;19.75;;;13.82;;
20441;SDS011;10380;52.102;20.614;2023-07-02T02:55:49;19.75;;;14.07;;
20441;SDS011;10380;52.102;20.614;2023-07-02T02:58:16;19.75;;;13.20;;
20441;SDS011;10380;52.102;20.614;2023-07-02T03:00:43;18.60;;;14.48;;
20441;SDS011;10380;52.102;20.614;2023-07-02T03:03:12;21.77;;;13.48;;
20441;SDS011;10380;52.102;20.614;2023-07-02T03:05:40;20.55;;;14.00;;
20441;SDS011;10380;52.102;20.614;2023-07-02T03:08:07;18.80;;;13.68;;
20441;SDS011;10380;52.102;20.614;2023-07-02T03:10:34;18.00;;;12.60;;
20441;SDS011;10380;52.102;20.614;2023-07-02T03:13:01;21.50;;;12.75;;
20441;SDS011;10380;52.102;20.614;2023-07-02T03:15:28;17.33;;;13.63;;
20441;SDS011;10380;52.102;20.614;2023-07-02T03:17:55;20.50;;;13.05;;
20441;SDS011;10380;52.102;20.614;2023-07-02T03:20:23;18.02;;;13.65;;
20441;SDS011;10380;52.102;20.614;2023-07-02T03:22:50;19.95;;;13.63;;
20441;SDS011;10380;52.102;20.614;2023-07-02T03:25:17;16.65;;;12.13;;
20441;SDS011;10380;52.102;20.614;2023-07-02T03:27:44;17.90;;;12.25;;
20441;SDS011;10380;52.102;20.614;2023-07-02T03:30:11;16.38;;;12.25;;
20441;SDS011;10380;52.102;20.614;2023-07-02T03:32:38;17.70;;;12.75;;
20441;SDS011;10380;52.102;20.614;2023-07-02T03:35:06;16.20;;;11.15;;
20441;SDS011;10380;52.102;20.614;2023-07-02T03:37:33;14.98;;;10.45;;
20441;SDS011;10380;52.102;20.614;2023-07-02T03:40:00;17.10;;;11.02;;
20441;SDS011;10380;52.102;20.614;2023-07-02T03:42:26;16.27;;;11.25;;
20441;SDS011;10380;52.102;20.614;2023-07-02T03:44:53;15.60;;;10.88;;
20441;SDS011;10380;52.102;20.614;2023-07-02T03:47:20;14.35;;;10.63;;
20441;SDS011;10380;52.102;20.614;2023-07-02T03:49:47;12.65;;;10.30;;
20441;SDS011;10380;52.102;20.614;2023-07-02T03:52:14;16.92;;;10.98;;
20441;SDS011;10380;52.102;20.614;2023-07-02T03:54:41;15.25;;;10.15;;
20441;SDS011;10380;52.102;20.614;2023-07-02T03:57:08;14.40;;;9.65;;
20441;SDS011;10380;52.102;20.614;2023-07-02T03:59:35;12.93;;;10.00;;
20441;SDS011;10380;52.102;20.614;2023-07-02T04:02:03;12.13;;;9.73;;
20441;SDS011;10380;52.102;20.614;2023-07-02T04:04:30;15.48;;;10.88;;
20441;SDS011;10380;52.102;20.614;2023-07-02T04:06:57;12.80;;;9.55;;
20441;SDS011;10380;52.102;20.614;2023-07-02T04:09:24;12.90;;;9.20;;
20441;SDS011;10380;52.102;20.614;2023-07-02T04:11:51;13.43;;;10.15;;
20441;SDS011;10380;52.102;20.614;2023-07-02T04:14:18;15.88;;;10.52;;
20441;SDS011;10380;52.102;20.614;2023-07-02T04:16:45;13.23;;;9.95;;
20441;SDS011;10380;52.102;20.614;2023-07-02T04:19:12;14.20;;;8.82;;
20441;SDS011;10380;52.102;20.614;2023-07-02T04:21:39;12.13;;;9.45;;
20441;SDS011;10380;52.102;20.614;2023-07-02T04:24:06;11.45;;;8.07;;
20441;SDS011;10380;52.102;20.614;2023-07-02T04:26:34;13.05;;;8.80;;
20441;SDS011;10380;52.102;20.614;2023-07-02T04:29:22;13.05;;;9.50;;
20441;SDS011;10380;52.102;20.614;2023-07-02T04:31:49;12.18;;;9.27;;
20441;SDS011;10380;52.102;20.614;2023-07-02T04:34:16;13.30;;;9.13;;
20441;SDS011;10380;52.102;20.614;2023-07-02T04:36:43;13.65;;;9.10;;
20441;SDS011;10380;52.102;20.614;2023-07-02T04:39:10;13.00;;;9.63;;
20441;SDS011;10380;52.102;20.614;2023-07-02T04:41:37;13.05;;;8.65;;
20441;SDS011;10380;52.102;20.614;2023-07-02T04:44:04;14.52;;;9.88;;
20441;SDS011;10380;52.102;20.614;2023-07-02T04:46:31;14.40;;;9.13;;
20441;SDS011;10380;52.102;20.614;2023-07-02T04:48:58;14.50;;;9.82;;
20441;SDS011;10380;52.102;20.614;2023-07-02T04:51:25;12.23;;;9.35;;
20441;SDS011;10380;52.102;20.614;2023-07-02T04:53:52;13.23;;;9.05;;
20441;SDS011;10380;52.102;20.614;2023-07-02T04:56:19;14.70;;;9.32;;
20441;SDS011;10380;52.102;20.614;2023-07-02T04:58:46;12.00;;;8.30;;
20441;SDS011;10380;52.102;20.614;2023-07-02T05:01:13;12.57;;;8.60;;
20441;SDS011;10380;52.102;20.614;2023-07-02T05:03:40;10.52;;;8.55;;
20441;SDS011;10380;52.102;20.614;2023-07-02T05:06:07;11.98;;;8.85;;
20441;SDS011;10380;52.102;20.614;2023-07-02T05:08:34;12.07;;;8.98;;
20441;SDS011;10380;52.102;20.614;2023-07-02T05:11:03;12.63;;;9.52;;
20441;SDS011;10380;52.102;20.614;2023-07-02T05:13:30;11.95;;;9.15;;
20441;SDS011;10380;52.102;20.614;2023-07-02T05:15:57;15.55;;;8.40;;
20441;SDS011;10380;52.102;20.614;2023-07-02T05:18:24;10.65;;;8.25;;
20441;SDS011;10380;52.102;20.614;2023-07-02T05:20:51;10.00;;;8.02;;
20441;SDS011;10380;52.102;20.614;2023-07-02T05:23:18;15.40;;;8.95;;
20441;SDS011;10380;52.102;20.614;2023-07-02T05:25:45;10.57;;;7.47;;
20441;SDS011;10380;52.102;20.614;2023-07-02T05:28:12;13.75;;;8.93;;
20441;SDS011;10380;52.102;20.614;2023-07-02T05:30:39;11.10;;;8.13;;
20441;SDS011;10380;52.102;20.614;2023-07-02T05:33:07;12.98;;;9.35;;
20441;SDS011;10380;52.102;20.614;2023-07-02T05:35:34;13.82;;;8.48;;
20441;SDS011;10380;52.102;20.614;2023-07-02T05:38:01;13.10;;;9.40;;
20441;SDS011;10380;52.102;20.614;2023-07-02T05:40:28;12.20;;;9.23;;
20441;SDS011;10380;52.102;20.614;2023-07-02T05:42:55;11.63;;;8.43;;
20441;SDS011;10380;52.102;20.614;2023-07-02T05:45:23;16.65;;;10.13;;
20441;SDS011;10380;52.102;20.614;2023-07-02T05:47:50;13.60;;;9.52;;
20441;SDS011;10380;52.102;20.614;2023-07-02T05:50:17;13.10;;;9.55;;
20441;SDS011;10380;52.102;20.614;2023-07-02T05:52:44;13.43;;;9.63;;
20441;SDS011;10380;52.102;20.614;2023-07-02T05:55:11;13.07;;;9.10;;
20441;SDS011;10380;52.102;20.614;2023-07-02T05:57:38;13.00;;;8.73;;
20441;SDS011;10380;52.102;20.614;2023-07-02T06:00:05;11.68;;;9.40;;
20441;SDS011;10380;52.102;20.614;2023-07-02T06:02:33;11.93;;;9.07;;
20441;SDS011;10380;52.102;20.614;2023-07-02T06:05:00;12.85;;;8.90;;
20441;SDS011;10380;52.102;20.614;2023-07-02T06:07:28;11.93;;;8.25;;
20441;SDS011;10380;52.102;20.614;2023-07-02T06:09:55;11.70;;;8.77;;
20441;SDS011;10380;52.102;20.614;2023-07-02T06:12:22;12.95;;;9.18;;
20441;SDS011;10380;52.102;20.614;2023-07-02T06:14:49;12.50;;;8.65;;
20441;SDS011;10380;52.102;20.614;2023-07-02T06:17:16;11.57;;;8.35;;
20441;SDS011;10380;52.102;20.614;2023-07-02T06:19:44;9.50;;;7.75;;
20441;SDS011;10380;52.102;20.614;2023-07-02T06:22:11;12.45;;;8.23;;
20441;SDS011;10380;52.102;20.614;2023-07-02T06:24:38;13.88;;;8.65;;
20441;SDS011;10380;52.102;20.614;2023-07-02T06:27:05;16.08;;;8.27;;
20441;SDS011;10380;52.102;20.614;2023-07-02T06:29:32;11.25;;;8.10;;
20441;SDS011;10380;52.102;20.614;2023-07-02T06:31:59;9.82;;;7.10;;
20441;SDS011;10380;52.102;20.614;2023-07-02T06:34:26;9.93;;;7.07;;
20441;SDS011;10380;52.102;20.614;2023-07-02T06:36:53;8.80;;;7.30;;
20441;SDS011;10380;52.102;20.614;2023-07-02T06:39:20;11.32;;;7.20;;
20441;SDS011;10380;52.102;20.614;2023-07-02T06:41:47;10.20;;;7.72;;
20441;SDS011;10380;52.102;20.614;2023-07-02T06:44:14;8.90;;;6.97;;
20441;SDS011;10380;52.102;20.614;2023-07-02T06:46:41;9.88;;;6.85;;
20441;SDS011;10380;52.102;20.614;2023-07-02T06:49:08;13.50;;;7.35;;
20441;SDS011;10380;52.102;20.614;2023-07-02T06:51:35;7.10;;;6.25;;
20441;SDS011;10380;52.102;20.614;2023-07-02T06:54:02;11.35;;;6.70;;
20441;SDS011;10380;52.102;20.614;2023-07-02T06:56:29;9.32;;;6.78;;
20441;SDS011;10380;52.102;20.614;2023-07-02T06:58:58;9.57;;;6.80;;
20441;SDS011;10380;52.102;20.614;2023-07-02T07:01:24;6.25;;;5.50;;
20441;SDS011;10380;52.102;20.614;2023-07-02T07:03:52;10.98;;;5.95;;
20441;SDS011;10380;52.102;20.614;2023-07-02T07:06:19;10.43;;;6.53;;
20441;SDS011;10380;52.102;20.614;2023-07-02T07:08:47;10.23;;;6.72;;
20441;SDS011;10380;52.102;20.614;2023-07-02T07:11:13;7.22;;;5.35;;
20441;SDS011;10380;52.102;20.614;2023-07-02T07:13:40;11.35;;;5.32;;
20441;SDS011;10380;52.102;20.614;2023-07-02T07:16:10;6.00;;;4.68;;
20441;SDS011;10380;52.102;20.614;2023-07-02T07:18:37;8.73;;;5.25;;
20441;SDS011;10380;52.102;20.614;2023-07-02T07:21:05;4.97;;;4.10;;
20441;SDS011;10380;52.102;20.614;2023-07-02T07:23:31;6.45;;;4.38;;
20441;SDS011;10380;52.102;20.614;2023-07-02T07:25:59;4.90;;;4.25;;
20441;SDS011;10380;52.102;20.614;2023-07-02T07:28:25;5.15;;;4.15;;
20441;SDS011;10380;52.102;20.614;2023-07-02T07:30:52;8.07;;;4.25;;
20441;SDS011;10380;52.102;20.614;2023-07-02T07:33:19;7.38;;;5.47;;
20441;SDS011;10380;52.102;20.614;2023-07-02T07:35:46;6.43;;;4.80;;
20441;SDS011;10380;52.102;20.614;2023-07-02T07:38:13;5.85;;;4.05;;
20441;SDS011;10380;52.102;20.614;2023-07-02T07:40:44;5.70;;;4.70;;
20441;SDS011;10380;52.102;20.614;2023-07-02T07:43:11;6.20;;;4.13;;
20441;SDS011;10380;52.102;20.614;2023-07-02T07:45:38;5.85;;;4.95;;
20441;SDS011;10380;52.102;20.614;2023-07-02T07:48:05;6.85;;;4.60;;
20441;SDS011;10380;52.102;20.614;2023-07-02T07:50:33;5.05;;;4.50;;
20441;SDS011;10380;52.102;20.614;2023-07-02T07:52:59;5.72;;;4.88;;
20441;SDS011;10380;52.102;20.614;2023-07-02T07:55:27;7.13;;;4.57;;
20441;SDS011;10380;52.102;20.614;2023-07-02T07:57:54;6.88;;;4.30;;
20441;SDS011;10380;52.102;20.614;2023-07-02T08:00:21;6.57;;;3.85;;
20441;SDS011;10380;52.102;20.614;2023-07-02T08:02:48;6.32;;;4.32;;
20441;SDS011;10380;52.102;20.614;2023-07-02T08:05:16;5.47;;;4.10;;
20441;SDS011;10380;52.102;20.614;2023-07-02T08:07:43;7.60;;;4.18;;
20441;SDS011;10380;52.102;20.614;2023-07-02T08:10:10;4.72;;;2.90;;
20441;SDS011;10380;52.102;20.614;2023-07-02T08:12:37;6.40;;;3.25;;
20441;SDS011;10380;52.102;20.614;2023-07-02T08:15:04;4.55;;;3.33;;
20441;SDS011;10380;52.102;20.614;2023-07-02T08:17:32;5.13;;;3.53;;
20441;SDS011;10380;52.102;20.614;2023-07-02T08:19:59;4.13;;;3.72;;
20441;SDS011;10380;52.102;20.614;2023-07-02T08:22:26;5.20;;;3.13;;
20441;SDS011;10380;52.102;20.614;2023-07-02T08:24:53;5.90;;;3.08;;
20441;SDS011;10380;52.102;20.614;2023-07-02T08:27:21;4.72;;;3.30;;
20441;SDS011;10380;52.102;20.614;2023-07-02T08:29:49;3.75;;;3.05;;
20441;SDS011;10380;52.102;20.614;2023-07-02T08:32:16;3.63;;;2.72;;
20441;SDS011;10380;52.102;20.614;2023-07-02T08:34:43;4.28;;;3.38;;
20441;SDS011;10380;52.102;20.614;2023-07-02T08:37:10;5.00;;;3.70;;
20441;SDS011;10380;52.102;20.614;2023-07-02T08:39:37;4.30;;;2.90;;
20441;SDS011;10380;52.102;20.614;2023-07-02T08:42:06;3.13;;;2.70;;
20441;SDS011;10380;52.102;20.614;2023-07-02T08:44:34;5.90;;;3.15;;
20441;SDS011;10380;52.102;20.614;2023-07-02T08:47:02;3.78;;;3.38;;
20441;SDS011;10380;52.102;20.614;2023-07-02T08:49:29;6.10;;;4.25;;
20441;SDS011;10380;52.102;20.614;2023-07-02T08:51:56;5.35;;;3.08;;
20441;SDS011;10380;52.102;20.614;2023-07-02T08:54:24;4.25;;;3.03;;
20441;SDS011;10380;52.102;20.614;2023-07-02T08:56:51;4.03;;;3.38;;
20441;SDS011;10380;52.102;20.614;2023-07-02T08:59:18;5.50;;;3.33;;
20441;SDS011;10380;52.102;20.614;2023-07-02T09:01:46;3.47;;;3.10;;
20441;SDS011;10380;52.102;20.614;2023-07-02T09:04:20;5.30;;;3.08;;
20441;SDS011;10380;52.102;20.614;2023-07-02T09:09:45;4.72;;;3.22;;
20441;SDS011;10380;52.102;20.614;2023-07-02T09:12:26;3.70;;;3.13;;
20441;SDS011;10380;52.102;20.614;2023-07-02T09:14:54;5.40;;;3.13;;
20441;SDS011;10380;52.102;20.614;2023-07-02T09:17:28;3.72;;;3.33;;
20441;SDS011;10380;52.102;20.614;2023-07-02T09:19:57;5.13;;;3.30;;
20441;SDS011;10380;52.102;20.614;2023-07-02T09:22:24;4.55;;;3.13;;
20441;SDS011;10380;52.102;20.614;2023-07-02T09:24:52;4.13;;;2.72;;
20441;SDS011;10380;52.102;20.614;2023-07-02T09:27:21;4.28;;;2.78;;
20441;SDS011;10380;52.102;20.614;2023-07-02T09:29:51;3.70;;;3.20;;
20441;SDS011;10380;52.102;20.614;2023-07-02T09:32:25;5.70;;;3.33;;
20441;SDS011;10380;52.102;20.614;2023-07-02T09:34:55;3.40;;;2.72;;
20441;SDS011;10380;52.102;20.614;2023-07-02T09:37:24;3.85;;;2.88;;
20441;SDS011;10380;52.102;20.614;2023-07-02T09:39:52;3.42;;;2.58;;
20441;SDS011;10380;52.102;20.614;2023-07-02T09:42:21;3.38;;;2.65;;
20441;SDS011;10380;52.102;20.614;2023-07-02T09:44:48;3.38;;;2.45;;
20441;SDS011;10380;52.102;20.614;2023-07-02T09:47:21;2.38;;;2.17;;
20441;SDS011;10380;52.102;20.614;2023-07-02T09:49:58;3.55;;;2.53;;
20441;SDS011;10380;52.102;20.614;2023-07-02T09:52:29;3.95;;;2.45;;
20441;SDS011;10380;52.102;20.614;2023-07-02T09:54:57;2.97;;;2.60;;
20441;SDS011;10380;52.102;20.614;2023-07-02T09:57:24;5.15;;;2.22;;
20441;SDS011;10380;52.102;20.614;2023-07-02T09:59:53;3.28;;;2.45;;
20441;SDS011;10380;52.102;20.614;2023-07-02T10:02:21;3.55;;;2.30;;
20441;SDS011;10380;52.102;20.614;2023-07-02T10:04:49;4.45;;;2.30;;
20441;SDS011;10380;52.102;20.614;2023-07-02T10:07:28;4.28;;;2.15;;
20441;SDS011;10380;52.102;20.614;2023-07-02T10:09:56;2.47;;;2.20;;
20441;SDS011;10380;52.102;20.614;2023-07-02T10:12:27;3.15;;;2.28;;
20441;SDS011;10380;52.102;20.614;2023-07-02T10:14:57;4.47;;;1.90;;
20441;SDS011;10380;52.102;20.614;2023-07-02T10:19:56;3.65;;;2.10;;
20441;SDS011;10380;52.102;20.614;2023-07-02T10:22:24;2.85;;;2.33;;
20441;SDS011;10380;52.102;20.614;2023-07-02T10:24:55;2.90;;;2.10;;
20441;SDS011;10380;52.102;20.614;2023-07-02T10:27:41;3.88;;;2.25;;
20441;SDS011;10380;52.102;20.614;2023-07-02T10:30:09;2.40;;;1.90;;
20441;SDS011;10380;52.102;20.614;2023-07-02T10:32:38;3.22;;;1.92;;
20441;SDS011;10380;52.102;20.614;2023-07-02T10:35:18;3.72;;;2.00;;
20441;SDS011;10380;52.102;20.614;2023-07-02T10:37:45;2.70;;;1.90;;
20441;SDS011;10380;52.102;20.614;2023-07-02T10:40:12;3.08;;;1.98;;
20441;SDS011;10380;52.102;20.614;2023-07-02T10:42:49;4.15;;;1.65;;
20441;SDS011;10380;52.102;20.614;2023-07-02T10:45:18;2.40;;;1.63;;
20441;SDS011;10380;52.102;20.614;2023-07-02T10:47:57;2.22;;;1.90;;
20441;SDS011;10380;52.102;20.614;2023-07-02T10:50:24;1.95;;;1.40;;
20441;SDS011;10380;52.102;20.614;2023-07-02T10:52:55;1.52;;;1.30;;
20441;SDS011;10380;52.102;20.614;2023-07-02T10:55:22;2.03;;;1.83;;
20441;SDS011;10380;52.102;20.614;2023-07-02T10:58:01;2.05;;;1.60;;
20441;SDS011;10380;52.102;20.614;2023-07-02T11:00:32;2.08;;;1.80;;
20441;SDS011;10380;52.102;20.614;2023-07-02T11:03:15;1.77;;;1.45;;
20441;SDS011;10380;52.102;20.614;2023-07-02T11:05:44;4.10;;;1.40;;
20441;SDS011;10380;52.102;20.614;2023-07-02T11:08:13;2.60;;;1.77;;
20441;SDS011;10380;52.102;20.614;2023-07-02T11:10:40;2.85;;;1.42;;
20441;SDS011;10380;52.102;20.614;2023-07-02T11:13:14;3.70;;;1.75;;
20441;SDS011;10380;52.102;20.614;2023-07-02T11:15:42;1.80;;;1.70;;
20441;SDS011;10380;52.102;20.614;2023-07-02T11:18:13;4.88;;;1.58;;
20441;SDS011;10380;52.102;20.614;2023-07-02T11:20:42;5.63;;;1.67;;
20441;SDS011;10380;52.102;20.614;2023-07-02T11:23:21;6.50;;;1.80;;
20441;SDS011;10380;52.102;20.614;2023-07-02T11:28:24;3.60;;;2.55;;
20441;SDS011;10380;52.102;20.614;2023-07-02T11:30:51;2.38;;;1.52;;
20441;SDS011;10380;52.102;20.614;2023-07-02T11:33:20;3.03;;;1.50;;
20441;SDS011;10380;52.102;20.614;2023-07-02T11:35:58;1.50;;;1.23;;
20441;SDS011;10380;52.102;20.614;2023-07-02T11:38:25;3.28;;;1.70;;
20441;SDS011;10380;52.102;20.614;2023-07-02T11:40:53;2.33;;;1.40;;
20441;SDS011;10380;52.102;20.614;2023-07-02T11:43:19;2.85;;;1.30;;
20441;SDS011;10380;52.102;20.614;2023-07-02T11:45:46;1.55;;;1.10;;
20441;SDS011;10380;52.102;20.614;2023-07-02T11:48:14;2.00;;;1.33;;
20441;SDS011;10380;52.102;20.614;2023-07-02T11:50:41;1.83;;;1.30;;
20441;SDS011;10380;52.102;20.614;2023-07-02T11:53:08;3.65;;;1.38;;
20441;SDS011;10380;52.102;20.614;2023-07-02T11:55:36;1.70;;;1.23;;
20441;SDS011;10380;52.102;20.614;2023-07-02T11:58:03;2.75;;;1.30;;
20441;SDS011;10380;52.102;20.614;2023-07-02T12:00:30;1.50;;;1.10;;
20441;SDS011;10380;52.102;20.614;2023-07-02T12:02:57;1.60;;;1.30;;
20441;SDS011;10380;52.102;20.614;2023-07-02T12:05:24;1.67;;;1.58;;
20441;SDS011;10380;52.102;20.614;2023-07-02T12:07:51;3.15;;;1.23;;
20441;SDS011;10380;52.102;20.614;2023-07-02T12:10:18;2.55;;;1.20;;
20441;SDS011;10380;52.102;20.614;2023-07-02T12:12:46;1.52;;;1.10;;
20441;SDS011;10380;52.102;20.614;2023-07-02T12:15:12;2.05;;;1.38;;
20441;SDS011;10380;52.102;20.614;2023-07-02T12:17:39;1.92;;;1.15;;
20441;SDS011;10380;52.102;20.614;2023-07-02T12:20:06;1.48;;;1.00;;
20441;SDS011;10380;52.102;20.614;2023-07-02T12:22:34;1.45;;;1.00;;
20441;SDS011;10380;52.102;20.614;2023-07-02T12:25:00;2.13;;;1.50;;
20441;SDS011;10380;52.102;20.614;2023-07-02T12:27:28;2.72;;;1.05;;
20441;SDS011;10380;52.102;20.614;2023-07-02T12:29:55;2.95;;;1.00;;
20441;SDS011;10380;52.102;20.614;2023-07-02T12:32:22;2.65;;;1.20;;
20441;SDS011;10380;52.102;20.614;2023-07-02T12:34:49;4.32;;;1.20;;
20441;SDS011;10380;52.102;20.614;2023-07-02T12:37:16;6.82;;;2.50;;
20441;SDS011;10380;52.102;20.614;2023-07-02T12:39:44;3.55;;;1.42;;
20441;SDS011;10380;52.102;20.614;2023-07-02T12:42:11;2.58;;;1.20;;
20441;SDS011;10380;52.102;20.614;2023-07-02T12:44:38;1.90;;;1.10;;
20441;SDS011;10380;52.102;20.614;2023-07-02T12:47:05;4.95;;;1.05;;
20441;SDS011;10380;52.102;20.614;2023-07-02T12:49:32;3.22;;;1.00;;
20441;SDS011;10380;52.102;20.614;2023-07-02T12:51:59;2.80;;;1.25;;
20441;SDS011;10380;52.102;20.614;2023-07-02T12:54:26;1.33;;;1.02;;
20441;SDS011;10380;52.102;20.614;2023-07-02T12:56:54;2.97;;;1.20;;
20441;SDS011;10380;52.102;20.614;2023-07-02T12:59:21;4.85;;;1.30;;
20441;SDS011;10380;52.102;20.614;2023-07-02T13:01:47;2.13;;;1.02;;
20441;SDS011;10380;52.102;20.614;2023-07-02T13:04:14;2.17;;;1.25;;
20441;SDS011;10380;52.102;20.614;2023-07-02T13:06:41;3.08;;;1.10;;
20441;SDS011;10380;52.102;20.614;2023-07-02T13:09:11;5.38;;;2.97;;
20441;SDS011;10380;52.102;20.614;2023-07-02T13:11:38;4.78;;;1.30;;
20441;SDS011;10380;52.102;20.614;2023-07-02T13:14:05;4.03;;;1.27;;
20441;SDS011;10380;52.102;20.614;2023-07-02T13:16:32;1.83;;;1.60;;
20441;SDS011;10380;52.102;20.614;2023-07-02T13:18:59;1.95;;;1.15;;
20441;SDS011;10380;52.102;20.614;2023-07-02T13:21:28;4.85;;;1.05;;
20441;SDS011;10380;52.102;20.614;2023-07-02T13:23:55;2.40;;;1.50;;
20441;SDS011;10380;52.102;20.614;2023-07-02T13:26:22;2.70;;;1.27;;
20441;SDS011;10380;52.102;20.614;2023-07-02T13:28:49;2.55;;;1.40;;
20441;SDS011;10380;52.102;20.614;2023-07-02T13:31:16;1.73;;;1.40;;
20441;SDS011;10380;52.102;20.614;2023-07-02T13:33:43;3.55;;;1.40;;
20441;SDS011;10380;52.102;20.614;2023-07-02T13:36:12;2.70;;;1.52;;
20441;SDS011;10380;52.102;20.614;2023-07-02T13:38:39;3.15;;;1.90;;
20441;SDS011;10380;52.102;20.614;2023-07-02T13:41:06;1.95;;;1.42;;
20441;SDS011;10380;52.102;20.614;2023-07-02T13:43:33;2.92;;;1.60;;
20441;SDS011;10380;52.102;20.614;2023-07-02T13:46:00;4.50;;;1.30;;
20441;SDS011;10380;52.102;20.614;2023-07-02T13:48:28;3.50;;;1.40;;
20441;SDS011;10380;52.102;20.614;2023-07-02T13:50:55;2.28;;;1.85;;
20441;SDS011;10380;52.102;20.614;2023-07-02T13:53:22;3.35;;;1.50;;
20441;SDS011;10380;52.102;20.614;2023-07-02T13:55:49;3.67;;;1.35;;
20441;SDS011;10380;52.102;20.614;2023-07-02T13:58:16;1.95;;;1.58;;
20441;SDS011;10380;52.102;20.614;2023-07-02T14:00:55;2.60;;;1.40;;
20441;SDS011;10380;52.102;20.614;2023-07-02T14:03:22;4.15;;;1.55;;
20441;SDS011;10380;52.102;20.614;2023-07-02T14:05:49;4.35;;;1.20;;
20441;SDS011;10380;52.102;20.614;2023-07-02T14:08:17;1.90;;;1.10;;
20441;SDS011;10380;52.102;20.614;2023-07-02T14:10:44;2.45;;;1.38;;
20441;SDS011;10380;52.102;20.614;2023-07-02T14:13:11;3.58;;;1.38;;
20441;SDS011;10380;52.102;20.614;2023-07-02T14:15:38;2.92;;;1.50;;
20441;SDS011;10380;52.102;20.614;2023-07-02T14:18:05;4.95;;;1.48;;
20441;SDS011;10380;52.102;20.614;2023-07-02T14:20:32;3.13;;;1.48;;
20441;SDS011;10380;52.102;20.614;2023-07-02T14:22:59;4.80;;;1.55;;
20441;SDS011;10380;52.102;20.614;2023-07-02T14:25:26;4.43;;;1.60;;
20441;SDS011;10380;52.102;20.614;2023-07-02T14:28:06;4.55;;;1.77;;
20441;SDS011;10380;52.102;20.614;2023-07-02T14:30:34;3.20;;;1.40;;
20441;SDS011;10380;52.102;20.614;2023-07-02T14:33:01;3.40;;;1.35;;
20441;SDS011;10380;52.102;20.614;2023-07-02T14:35:30;2.88;;;1.58;;
20441;SDS011;10380;52.102;20.614;2023-07-02T14:37:57;2.47;;;1.33;;
20441;SDS011;10380;52.102;20.614;2023-07-02T14:40:24;3.83;;;1.52;;